sensor_id;sensor_type;location;lat;lon;timestamp;P1;durP1;ratioP1;P2;durP2;ratioP2
8572;SDS011;4324;42.012;24.872;2022-08-01T00:02:17;7.57;;;6.87;;
8572;SDS011;4324;42.012;24.872;2022-08-01T00:04:44;6.50;;;6.10;;
8572;SDS011;4324;42.012;24.872;2022-08-01T00:07:11;6.53;;;6.10;;
8572;SDS011;4324;42.012;24.872;2022-08-01T00:09:38;6.13;;;5.73;;
8572;SDS011;4324;42.012;24.872;2022-08-01T00:12:06;6.00;;;5.60;;
8572;SDS011;4324;42.012;24.872;2022-08-01T00:14:34;5.67;;;5.30;;
8572;SDS011;4324;42.012;24.872;2022-08-01T00:17:01;6.50;;;6.00;;
8572;SDS011;4324;42.012;24.872;2022-08-01T00:19:28;6.30;;;5.90;;
8572;SDS011;4324;42.012;24.872;2022-08-01T00:21:55;6.20;;;5.57;;
8572;SDS011;4324;42.012;24.872;2022-08-01T00:24:22;6.20;;;5.80;;
8572;SDS011;4324;42.012;24.872;2022-08-01T00:26:49;6.00;;;5.60;;
8572;SDS011;4324;42.012;24.872;2022-08-01T00:29:17;6.63;;;6.13;;
8572;SDS011;4324;42.012;24.872;2022-08-01T00:31:44;6.80;;;6.30;;
8572;SDS011;4324;42.012;24.872;2022-08-01T00:34:11;7.37;;;6.77;;
8572;SDS011;4324;42.012;24.872;2022-08-01T00:36:38;7.70;;;7.10;;
8572;SDS011;4324;42.012;24.872;2022-08-01T00:39:06;6.73;;;6.33;;
8572;SDS011;4324;42.012;24.872;2022-08-01T00:41:32;6.77;;;6.30;;
8572;SDS011;4324;42.012;24.872;2022-08-01T00:44:03;6.80;;;6.33;;
8572;SDS011;4324;42.012;24.872;2022-08-01T00:46:32;6.80;;;6.40;;
8572;SDS011;4324;42.012;24.872;2022-08-01T00:48:59;7.60;;;7.00;;
8572;SDS011;4324;42.012;24.872;2022-08-01T00:51:27;8.07;;;7.47;;
8572;SDS011;4324;42.012;24.872;2022-08-01T00:53:54;8.40;;;7.80;;
8572;SDS011;4324;42.012;24.872;2022-08-01T00:56:22;7.93;;;7.43;;
8572;SDS011;4324;42.012;24.872;2022-08-01T00:58:51;8.07;;;7.57;;
8572;SDS011;4324;42.012;24.872;2022-08-01T01:01:19;8.70;;;8.10;;
8572;SDS011;4324;42.012;24.872;2022-08-01T01:03:48;8.23;;;7.73;;
8572;SDS011;4324;42.012;24.872;2022-08-01T01:06:23;8.30;;;7.80;;
8572;SDS011;4324;42.012;24.872;2022-08-01T01:08:55;8.37;;;7.77;;
8572;SDS011;4324;42.012;24.872;2022-08-01T01:11:35;8.23;;;7.63;;
8572;SDS011;4324;42.012;24.872;2022-08-01T01:14:10;8.90;;;8.00;;
8572;SDS011;4324;42.012;24.872;2022-08-01T01:16:42;8.23;;;7.63;;
8572;SDS011;4324;42.012;24.872;2022-08-01T01:19:13;8.37;;;7.87;;
8572;SDS011;4324;42.012;24.872;2022-08-01T01:21:53;7.77;;;7.27;;
8572;SDS011;4324;42.012;24.872;2022-08-01T01:24:35;7.57;;;7.07;;
8572;SDS011;4324;42.012;24.872;2022-08-01T01:27:10;8.57;;;7.87;;
8572;SDS011;4324;42.012;24.872;2022-08-01T01:29:46;7.40;;;6.90;;
8572;SDS011;4324;42.012;24.872;2022-08-01T01:32:18;8.03;;;7.47;;
8572;SDS011;4324;42.012;24.872;2022-08-01T01:34:49;8.03;;;7.53;;
8572;SDS011;4324;42.012;24.872;2022-08-01T01:37:22;7.87;;;7.30;;
8572;SDS011;4324;42.012;24.872;2022-08-01T01:39:51;7.93;;;7.27;;
8572;SDS011;4324;42.012;24.872;2022-08-01T01:42:19;7.77;;;7.27;;
8572;SDS011;4324;42.012;24.872;2022-08-01T01:44:49;7.80;;;7.00;;
8572;SDS011;4324;42.012;24.872;2022-08-01T01:47:17;9.77;;;8.97;;
8572;SDS011;4324;42.012;24.872;2022-08-01T01:49:45;9.87;;;9.07;;
8572;SDS011;4324;42.012;24.872;2022-08-01T01:52:15;8.67;;;7.80;;
8572;SDS011;4324;42.012;24.872;2022-08-01T01:54:44;8.13;;;7.40;;
8572;SDS011;4324;42.012;24.872;2022-08-01T01:57:15;8.63;;;8.13;;
8572;SDS011;4324;42.012;24.872;2022-08-01T01:59:43;7.67;;;7.10;;
8572;SDS011;4324;42.012;24.872;2022-08-01T02:02:14;7.97;;;7.37;;
8572;SDS011;4324;42.012;24.872;2022-08-01T02:04:43;7.40;;;6.87;;
8572;SDS011;4324;42.012;24.872;2022-08-01T02:07:13;7.87;;;7.30;;
8572;SDS011;4324;42.012;24.872;2022-08-01T02:09:43;7.80;;;7.20;;
8572;SDS011;4324;42.012;24.872;2022-08-01T02:12:13;8.17;;;7.67;;
8572;SDS011;4324;42.012;24.872;2022-08-01T02:14:42;7.80;;;7.30;;
8572;SDS011;4324;42.012;24.872;2022-08-01T02:17:15;7.87;;;7.07;;
8572;SDS011;4324;42.012;24.872;2022-08-01T02:19:43;8.50;;;7.80;;
8572;SDS011;4324;42.012;24.872;2022-08-01T02:22:11;7.83;;;7.23;;
8572;SDS011;4324;42.012;24.872;2022-08-01T02:24:44;7.97;;;7.47;;
8572;SDS011;4324;42.012;24.872;2022-08-01T02:27:17;7.73;;;7.13;;
8572;SDS011;4324;42.012;24.872;2022-08-01T02:29:52;7.13;;;6.73;;
8572;SDS011;4324;42.012;24.872;2022-08-01T02:32:27;7.60;;;7.07;;
8572;SDS011;4324;42.012;24.872;2022-08-01T02:34:58;7.80;;;7.20;;
8572;SDS011;4324;42.012;24.872;2022-08-01T02:37:28;7.60;;;7.10;;
8572;SDS011;4324;42.012;24.872;2022-08-01T02:39:57;7.93;;;7.33;;
8572;SDS011;4324;42.012;24.872;2022-08-01T02:42:26;7.00;;;6.60;;
8572;SDS011;4324;42.012;24.872;2022-08-01T02:44:56;7.60;;;7.00;;
8572;SDS011;4324;42.012;24.872;2022-08-01T02:47:25;7.17;;;6.67;;
8572;SDS011;4324;42.012;24.872;2022-08-01T02:49:55;6.80;;;6.40;;
8572;SDS011;4324;42.012;24.872;2022-08-01T02:52:23;6.93;;;6.53;;
8572;SDS011;4324;42.012;24.872;2022-08-01T02:54:53;6.70;;;6.13;;
8572;SDS011;4324;42.012;24.872;2022-08-01T02:57:22;5.43;;;5.13;;
8572;SDS011;4324;42.012;24.872;2022-08-01T02:59:50;5.77;;;5.37;;
8572;SDS011;4324;42.012;24.872;2022-08-01T03:02:20;4.87;;;4.43;;
8572;SDS011;4324;42.012;24.872;2022-08-01T03:04:51;5.40;;;4.97;;
8572;SDS011;4324;42.012;24.872;2022-08-01T03:07:20;4.73;;;4.43;;
8572;SDS011;4324;42.012;24.872;2022-08-01T03:09:49;4.60;;;4.20;;
8572;SDS011;4324;42.012;24.872;2022-08-01T03:12:18;4.70;;;4.40;;
8572;SDS011;4324;42.012;24.872;2022-08-01T03:14:48;4.63;;;4.30;;
8572;SDS011;4324;42.012;24.872;2022-08-01T03:17:18;5.03;;;4.27;;
8572;SDS011;4324;42.012;24.872;2022-08-01T03:19:47;5.50;;;5.00;;
8572;SDS011;4324;42.012;24.872;2022-08-01T03:22:17;6.07;;;5.37;;
8572;SDS011;4324;42.012;24.872;2022-08-01T03:24:47;5.43;;;4.90;;
8572;SDS011;4324;42.012;24.872;2022-08-01T03:27:17;4.40;;;4.00;;
8572;SDS011;4324;42.012;24.872;2022-08-01T03:29:45;4.90;;;4.57;;
8572;SDS011;4324;42.012;24.872;2022-08-01T03:32:15;5.00;;;4.03;;
8572;SDS011;4324;42.012;24.872;2022-08-01T03:34:44;5.23;;;4.90;;
8572;SDS011;4324;42.012;24.872;2022-08-01T03:37:12;6.53;;;5.93;;
8572;SDS011;4324;42.012;24.872;2022-08-01T03:39:47;4.70;;;4.30;;
8572;SDS011;4324;42.012;24.872;2022-08-01T03:42:19;4.77;;;4.40;;
8572;SDS011;4324;42.012;24.872;2022-08-01T03:44:51;5.07;;;4.77;;
8572;SDS011;4324;42.012;24.872;2022-08-01T03:47:21;5.80;;;5.20;;
8572;SDS011;4324;42.012;24.872;2022-08-01T03:49:52;5.67;;;5.20;;
8572;SDS011;4324;42.012;24.872;2022-08-01T03:52:21;5.17;;;4.67;;
8572;SDS011;4324;42.012;24.872;2022-08-01T03:54:52;4.67;;;4.37;;
8572;SDS011;4324;42.012;24.872;2022-08-01T03:57:22;5.40;;;5.00;;
8572;SDS011;4324;42.012;24.872;2022-08-01T03:59:50;5.73;;;5.13;;
8572;SDS011;4324;42.012;24.872;2022-08-01T04:02:18;3.23;;;3.03;;
8572;SDS011;4324;42.012;24.872;2022-08-01T04:04:47;4.37;;;4.07;;
8572;SDS011;4324;42.012;24.872;2022-08-01T04:07:21;4.40;;;4.00;;
8572;SDS011;4324;42.012;24.872;2022-08-01T04:09:49;7.13;;;6.10;;
8572;SDS011;4324;42.012;24.872;2022-08-01T04:12:18;5.30;;;4.90;;
8572;SDS011;4324;42.012;24.872;2022-08-01T04:14:45;5.20;;;4.73;;
8572;SDS011;4324;42.012;24.872;2022-08-01T04:17:12;4.83;;;4.53;;
8572;SDS011;4324;42.012;24.872;2022-08-01T04:19:40;4.23;;;3.93;;
8572;SDS011;4324;42.012;24.872;2022-08-01T04:22:07;4.53;;;3.80;;
8572;SDS011;4324;42.012;24.872;2022-08-01T04:24:36;4.17;;;3.73;;
8572;SDS011;4324;42.012;24.872;2022-08-01T04:27:05;3.80;;;3.50;;
8572;SDS011;4324;42.012;24.872;2022-08-01T04:29:37;25.23;;;6.10;;
8572;SDS011;4324;42.012;24.872;2022-08-01T04:32:05;10.87;;;4.40;;
8572;SDS011;4324;42.012;24.872;2022-08-01T04:34:34;4.67;;;3.40;;
8572;SDS011;4324;42.012;24.872;2022-08-01T04:37:07;22.83;;;6.17;;
8572;SDS011;4324;42.012;24.872;2022-08-01T04:39:36;4.47;;;3.23;;
8572;SDS011;4324;42.012;24.872;2022-08-01T04:42:05;8.70;;;4.80;;
8572;SDS011;4324;42.012;24.872;2022-08-01T04:44:33;4.27;;;3.70;;
8572;SDS011;4324;42.012;24.872;2022-08-01T04:47:02;15.63;;;6.70;;
8572;SDS011;4324;42.012;24.872;2022-08-01T04:49:33;3.90;;;3.57;;
8572;SDS011;4324;42.012;24.872;2022-08-01T04:52:00;5.33;;;3.63;;
8572;SDS011;4324;42.012;24.872;2022-08-01T04:54:28;3.03;;;2.80;;
8572;SDS011;4324;42.012;24.872;2022-08-01T04:56:58;4.70;;;4.20;;
8572;SDS011;4324;42.012;24.872;2022-08-01T04:59:26;4.30;;;3.50;;
8572;SDS011;4324;42.012;24.872;2022-08-01T05:02:10;19.97;;;5.70;;
8572;SDS011;4324;42.012;24.872;2022-08-01T05:04:44;3.50;;;3.20;;
8572;SDS011;4324;42.012;24.872;2022-08-01T05:07:12;4.23;;;3.83;;
8572;SDS011;4324;42.012;24.872;2022-08-01T05:09:41;3.73;;;3.40;;
8572;SDS011;4324;42.012;24.872;2022-08-01T05:12:08;3.80;;;3.13;;
8572;SDS011;4324;42.012;24.872;2022-08-01T05:14:36;5.83;;;3.40;;
8572;SDS011;4324;42.012;24.872;2022-08-01T05:17:03;3.73;;;3.10;;
8572;SDS011;4324;42.012;24.872;2022-08-01T05:19:33;3.60;;;3.30;;
8572;SDS011;4324;42.012;24.872;2022-08-01T05:22:01;3.60;;;3.30;;
8572;SDS011;4324;42.012;24.872;2022-08-01T05:24:29;4.17;;;3.27;;
8572;SDS011;4324;42.012;24.872;2022-08-01T05:26:57;3.70;;;3.40;;
8572;SDS011;4324;42.012;24.872;2022-08-01T05:29:24;4.20;;;3.80;;
8572;SDS011;4324;42.012;24.872;2022-08-01T05:31:51;9.63;;;4.03;;
8572;SDS011;4324;42.012;24.872;2022-08-01T05:34:19;10.07;;;3.97;;
8572;SDS011;4324;42.012;24.872;2022-08-01T05:36:48;7.87;;;5.47;;
8572;SDS011;4324;42.012;24.872;2022-08-01T05:39:15;4.40;;;4.00;;
8572;SDS011;4324;42.012;24.872;2022-08-01T05:41:42;4.10;;;3.80;;
8572;SDS011;4324;42.012;24.872;2022-08-01T05:44:09;4.43;;;3.93;;
8572;SDS011;4324;42.012;24.872;2022-08-01T05:46:36;4.87;;;4.47;;
8572;SDS011;4324;42.012;24.872;2022-08-01T05:49:04;4.43;;;4.13;;
8572;SDS011;4324;42.012;24.872;2022-08-01T05:51:31;4.27;;;3.83;;
8572;SDS011;4324;42.012;24.872;2022-08-01T05:54:00;3.77;;;3.40;;
8572;SDS011;4324;42.012;24.872;2022-08-01T05:56:27;3.47;;;3.17;;
8572;SDS011;4324;42.012;24.872;2022-08-01T05:58:54;6.20;;;3.70;;
8572;SDS011;4324;42.012;24.872;2022-08-01T06:01:21;4.27;;;3.60;;
8572;SDS011;4324;42.012;24.872;2022-08-01T06:03:48;3.17;;;2.87;;
8572;SDS011;4324;42.012;24.872;2022-08-01T06:06:15;4.23;;;3.40;;
8572;SDS011;4324;42.012;24.872;2022-08-01T06:08:42;3.83;;;3.53;;
8572;SDS011;4324;42.012;24.872;2022-08-01T06:11:10;5.53;;;3.57;;
8572;SDS011;4324;42.012;24.872;2022-08-01T06:13:37;3.70;;;3.27;;
8572;SDS011;4324;42.012;24.872;2022-08-01T06:16:04;5.03;;;4.23;;
8572;SDS011;4324;42.012;24.872;2022-08-01T06:18:31;5.23;;;3.40;;
8572;SDS011;4324;42.012;24.872;2022-08-01T06:20:58;3.03;;;2.83;;
8572;SDS011;4324;42.012;24.872;2022-08-01T06:23:25;4.90;;;4.03;;
8572;SDS011;4324;42.012;24.872;2022-08-01T06:25:53;6.07;;;3.43;;
8572;SDS011;4324;42.012;24.872;2022-08-01T06:28:21;5.00;;;3.33;;
8572;SDS011;4324;42.012;24.872;2022-08-01T06:30:48;8.30;;;3.20;;
8572;SDS011;4324;42.012;24.872;2022-08-01T06:33:15;3.57;;;3.27;;
8572;SDS011;4324;42.012;24.872;2022-08-01T06:35:42;5.57;;;3.17;;
8572;SDS011;4324;42.012;24.872;2022-08-01T06:38:09;3.37;;;3.00;;
8572;SDS011;4324;42.012;24.872;2022-08-01T06:40:38;4.37;;;3.63;;
8572;SDS011;4324;42.012;24.872;2022-08-01T06:43:05;8.53;;;3.47;;
8572;SDS011;4324;42.012;24.872;2022-08-01T06:45:34;3.40;;;3.07;;
8572;SDS011;4324;42.012;24.872;2022-08-01T06:48:02;6.67;;;4.00;;
8572;SDS011;4324;42.012;24.872;2022-08-01T06:50:29;11.47;;;4.13;;
8572;SDS011;4324;42.012;24.872;2022-08-01T06:52:56;6.67;;;3.80;;
8572;SDS011;4324;42.012;24.872;2022-08-01T06:55:23;6.40;;;3.63;;
8572;SDS011;4324;42.012;24.872;2022-08-01T06:57:51;4.60;;;3.47;;
8572;SDS011;4324;42.012;24.872;2022-08-01T07:00:19;4.07;;;3.63;;
8572;SDS011;4324;42.012;24.872;2022-08-01T07:02:49;4.30;;;3.90;;
8572;SDS011;4324;42.012;24.872;2022-08-01T07:05:16;6.67;;;3.50;;
8572;SDS011;4324;42.012;24.872;2022-08-01T07:07:42;4.27;;;3.40;;
8572;SDS011;4324;42.012;24.872;2022-08-01T07:10:09;4.60;;;3.73;;
8572;SDS011;4324;42.012;24.872;2022-08-01T07:12:37;5.30;;;3.63;;
8572;SDS011;4324;42.012;24.872;2022-08-01T07:15:06;6.63;;;3.70;;
8572;SDS011;4324;42.012;24.872;2022-08-01T07:17:36;6.67;;;4.10;;
8572;SDS011;4324;42.012;24.872;2022-08-01T07:20:06;3.80;;;3.40;;
8572;SDS011;4324;42.012;24.872;2022-08-01T07:22:35;4.97;;;3.63;;
8572;SDS011;4324;42.012;24.872;2022-08-01T07:25:03;3.47;;;3.27;;
8572;SDS011;4324;42.012;24.872;2022-08-01T07:27:31;4.90;;;3.30;;
8572;SDS011;4324;42.012;24.872;2022-08-01T07:29:58;4.87;;;3.57;;
8572;SDS011;4324;42.012;24.872;2022-08-01T07:32:25;4.70;;;3.90;;
8572;SDS011;4324;42.012;24.872;2022-08-01T07:34:52;7.10;;;3.47;;
8572;SDS011;4324;42.012;24.872;2022-08-01T07:37:20;5.73;;;4.00;;
8572;SDS011;4324;42.012;24.872;2022-08-01T07:39:48;4.10;;;3.70;;
8572;SDS011;4324;42.012;24.872;2022-08-01T07:42:15;3.83;;;3.50;;
8572;SDS011;4324;42.012;24.872;2022-08-01T07:44:42;3.97;;;3.67;;
8572;SDS011;4324;42.012;24.872;2022-08-01T07:47:09;4.03;;;3.47;;
8572;SDS011;4324;42.012;24.872;2022-08-01T07:49:36;4.83;;;3.63;;
8572;SDS011;4324;42.012;24.872;2022-08-01T07:52:04;4.10;;;3.80;;
8572;SDS011;4324;42.012;24.872;2022-08-01T07:54:33;3.40;;;3.20;;
8572;SDS011;4324;42.012;24.872;2022-08-01T07:57:00;5.73;;;3.53;;
8572;SDS011;4324;42.012;24.872;2022-08-01T07:59:27;6.20;;;3.87;;
8572;SDS011;4324;42.012;24.872;2022-08-01T08:01:56;4.20;;;3.80;;
8572;SDS011;4324;42.012;24.872;2022-08-01T08:04:24;4.77;;;3.80;;
8572;SDS011;4324;42.012;24.872;2022-08-01T08:06:51;3.60;;;3.30;;
8572;SDS011;4324;42.012;24.872;2022-08-01T08:09:18;5.60;;;3.73;;
8572;SDS011;4324;42.012;24.872;2022-08-01T08:11:47;5.00;;;3.50;;
8572;SDS011;4324;42.012;24.872;2022-08-01T08:14:14;5.23;;;3.50;;
8572;SDS011;4324;42.012;24.872;2022-08-01T08:16:41;3.93;;;3.63;;
8572;SDS011;4324;42.012;24.872;2022-08-01T08:19:09;5.97;;;3.37;;
8572;SDS011;4324;42.012;24.872;2022-08-01T08:21:35;3.97;;;3.63;;
8572;SDS011;4324;42.012;24.872;2022-08-01T08:24:02;8.80;;;4.23;;
8572;SDS011;4324;42.012;24.872;2022-08-01T08:26:51;5.10;;;3.60;;
8572;SDS011;4324;42.012;24.872;2022-08-01T08:29:20;8.67;;;5.00;;
8572;SDS011;4324;42.012;24.872;2022-08-01T08:31:47;5.23;;;3.93;;
8572;SDS011;4324;42.012;24.872;2022-08-01T08:34:14;7.10;;;4.00;;
8572;SDS011;4324;42.012;24.872;2022-08-01T08:36:41;5.77;;;3.43;;
8572;SDS011;4324;42.012;24.872;2022-08-01T08:39:08;4.10;;;3.80;;
8572;SDS011;4324;42.012;24.872;2022-08-01T08:41:35;4.37;;;4.07;;
8572;SDS011;4324;42.012;24.872;2022-08-01T08:44:05;5.23;;;3.37;;
8572;SDS011;4324;42.012;24.872;2022-08-01T08:46:33;3.57;;;3.27;;
8572;SDS011;4324;42.012;24.872;2022-08-01T08:49:05;3.73;;;3.43;;
8572;SDS011;4324;42.012;24.872;2022-08-01T08:51:34;4.43;;;3.80;;
8572;SDS011;4324;42.012;24.872;2022-08-01T08:54:04;5.03;;;3.67;;
8572;SDS011;4324;42.012;24.872;2022-08-01T08:56:32;6.70;;;3.90;;
8572;SDS011;4324;42.012;24.872;2022-08-01T08:59:02;5.40;;;3.83;;
8572;SDS011;4324;42.012;24.872;2022-08-01T09:01:31;4.40;;;3.83;;
8572;SDS011;4324;42.012;24.872;2022-08-01T09:04:00;4.20;;;3.83;;
8572;SDS011;4324;42.012;24.872;2022-08-01T09:06:27;6.83;;;3.30;;
8572;SDS011;4324;42.012;24.872;2022-08-01T09:08:55;3.80;;;3.50;;
8572;SDS011;4324;42.012;24.872;2022-08-01T09:11:23;4.30;;;3.77;;
8572;SDS011;4324;42.012;24.872;2022-08-01T09:14:03;3.83;;;3.47;;
8572;SDS011;4324;42.012;24.872;2022-08-01T09:16:37;4.93;;;3.37;;
8572;SDS011;4324;42.012;24.872;2022-08-01T09:19:07;9.37;;;3.60;;
8572;SDS011;4324;42.012;24.872;2022-08-01T09:21:36;4.83;;;2.87;;
8572;SDS011;4324;42.012;24.872;2022-08-01T09:24:03;5.03;;;3.30;;
8572;SDS011;4324;42.012;24.872;2022-08-01T09:26:33;4.93;;;4.03;;
8572;SDS011;4324;42.012;24.872;2022-08-01T09:29:04;3.73;;;3.30;;
8572;SDS011;4324;42.012;24.872;2022-08-01T09:31:40;6.03;;;3.67;;
8572;SDS011;4324;42.012;24.872;2022-08-01T09:34:09;4.67;;;3.80;;
8572;SDS011;4324;42.012;24.872;2022-08-01T09:36:49;4.57;;;3.80;;
8572;SDS011;4324;42.012;24.872;2022-08-01T09:39:22;4.10;;;3.80;;
8572;SDS011;4324;42.012;24.872;2022-08-01T09:41:50;5.97;;;4.17;;
8572;SDS011;4324;42.012;24.872;2022-08-01T09:44:18;4.63;;;4.20;;
8572;SDS011;4324;42.012;24.872;2022-08-01T09:46:50;4.10;;;3.70;;
8572;SDS011;4324;42.012;24.872;2022-08-01T09:49:29;4.90;;;3.53;;
8572;SDS011;4324;42.012;24.872;2022-08-01T09:51:57;5.60;;;3.80;;
8572;SDS011;4324;42.012;24.872;2022-08-01T09:54:29;3.70;;;3.40;;
8572;SDS011;4324;42.012;24.872;2022-08-01T09:57:08;6.23;;;4.90;;
8572;SDS011;4324;42.012;24.872;2022-08-01T09:59:36;6.23;;;4.63;;
8572;SDS011;4324;42.012;24.872;2022-08-01T10:02:08;4.70;;;4.30;;
8572;SDS011;4324;42.012;24.872;2022-08-01T10:04:45;4.77;;;3.70;;
8572;SDS011;4324;42.012;24.872;2022-08-01T10:07:13;4.03;;;3.13;;
8572;SDS011;4324;42.012;24.872;2022-08-01T10:09:44;3.43;;;3.20;;
8572;SDS011;4324;42.012;24.872;2022-08-01T10:12:12;5.27;;;4.30;;
8572;SDS011;4324;42.012;24.872;2022-08-01T10:14:40;8.63;;;4.13;;
8572;SDS011;4324;42.012;24.872;2022-08-01T10:17:11;3.90;;;3.57;;
8572;SDS011;4324;42.012;24.872;2022-08-01T10:19:39;3.47;;;3.17;;
8572;SDS011;4324;42.012;24.872;2022-08-01T10:22:09;3.37;;;3.07;;
8572;SDS011;4324;42.012;24.872;2022-08-01T10:24:39;3.73;;;3.50;;
8572;SDS011;4324;42.012;24.872;2022-08-01T10:27:07;3.70;;;3.40;;
8572;SDS011;4324;42.012;24.872;2022-08-01T10:29:39;6.10;;;3.30;;
8572;SDS011;4324;42.012;24.872;2022-08-01T10:32:07;4.10;;;2.70;;
8572;SDS011;4324;42.012;24.872;2022-08-01T10:34:37;3.37;;;3.07;;
8572;SDS011;4324;42.012;24.872;2022-08-01T10:37:06;3.13;;;2.83;;
8572;SDS011;4324;42.012;24.872;2022-08-01T10:39:34;3.97;;;3.63;;
8572;SDS011;4324;42.012;24.872;2022-08-01T10:42:01;3.40;;;3.20;;
8572;SDS011;4324;42.012;24.872;2022-08-01T10:44:30;3.93;;;3.50;;
8572;SDS011;4324;42.012;24.872;2022-08-01T10:46:59;3.27;;;3.07;;
8572;SDS011;4324;42.012;24.872;2022-08-01T10:49:32;3.10;;;2.80;;
8572;SDS011;4324;42.012;24.872;2022-08-01T10:52:03;5.80;;;3.30;;
8572;SDS011;4324;42.012;24.872;2022-08-01T10:54:37;4.13;;;2.73;;
8572;SDS011;4324;42.012;24.872;2022-08-01T10:57:06;5.33;;;3.97;;
8572;SDS011;4324;42.012;24.872;2022-08-01T10:59:33;3.83;;;3.53;;
8572;SDS011;4324;42.012;24.872;2022-08-01T11:02:05;4.00;;;3.70;;
8572;SDS011;4324;42.012;24.872;2022-08-01T11:04:35;3.83;;;3.20;;
8572;SDS011;4324;42.012;24.872;2022-08-01T11:07:12;4.63;;;3.33;;
8572;SDS011;4324;42.012;24.872;2022-08-01T11:09:43;3.13;;;2.83;;
8572;SDS011;4324;42.012;24.872;2022-08-01T11:12:12;6.43;;;3.07;;
8572;SDS011;4324;42.012;24.872;2022-08-01T11:17:54;4.50;;;3.00;;
8572;SDS011;4324;42.012;24.872;2022-08-01T11:20:24;5.23;;;3.30;;
8572;SDS011;4324;42.012;24.872;2022-08-01T11:26:06;5.83;;;3.40;;
8572;SDS011;4324;42.012;24.872;2022-08-01T11:28:38;4.53;;;3.67;;
8572;SDS011;4324;42.012;24.872;2022-08-01T11:31:25;4.90;;;3.07;;
8572;SDS011;4324;42.012;24.872;2022-08-01T11:33:53;3.10;;;2.90;;
8572;SDS011;4324;42.012;24.872;2022-08-01T11:36:22;4.87;;;3.07;;
8572;SDS011;4324;42.012;24.872;2022-08-01T11:38:49;3.10;;;2.90;;
8572;SDS011;4324;42.012;24.872;2022-08-01T11:41:32;5.17;;;3.27;;
8572;SDS011;4324;42.012;24.872;2022-08-01T11:44:01;3.17;;;2.80;;
8572;SDS011;4324;42.012;24.872;2022-08-01T11:46:45;3.10;;;2.90;;
8572;SDS011;4324;42.012;24.872;2022-08-01T11:49:24;3.07;;;2.80;;
8572;SDS011;4324;42.012;24.872;2022-08-01T11:52:05;3.30;;;2.80;;
8572;SDS011;4324;42.012;24.872;2022-08-01T11:54:35;2.87;;;2.67;;
8572;SDS011;4324;42.012;24.872;2022-08-01T11:57:04;2.90;;;2.70;;
8572;SDS011;4324;42.012;24.872;2022-08-01T11:59:36;3.20;;;2.90;;
8572;SDS011;4324;42.012;24.872;2022-08-01T12:02:14;3.00;;;2.80;;
8572;SDS011;4324;42.012;24.872;2022-08-01T12:04:48;3.27;;;3.00;;
8572;SDS011;4324;42.012;24.872;2022-08-01T12:07:23;3.60;;;3.23;;
8572;SDS011;4324;42.012;24.872;2022-08-01T12:09:58;3.20;;;2.90;;
8572;SDS011;4324;42.012;24.872;2022-08-01T12:12:27;4.03;;;3.20;;
8572;SDS011;4324;42.012;24.872;2022-08-01T12:14:56;3.50;;;3.20;;
8572;SDS011;4324;42.012;24.872;2022-08-01T12:17:28;3.83;;;3.53;;
8572;SDS011;4324;42.012;24.872;2022-08-01T12:19:56;3.83;;;3.42;;
8572;SDS011;4324;42.012;24.872;2022-08-01T12:22:24;3.77;;;3.47;;
8572;SDS011;4324;42.012;24.872;2022-08-01T12:24:52;3.30;;;3.07;;
8572;SDS011;4324;42.012;24.872;2022-08-01T12:27:26;3.73;;;3.43;;
8572;SDS011;4324;42.012;24.872;2022-08-01T12:29:54;3.20;;;2.90;;
8572;SDS011;4324;42.012;24.872;2022-08-01T12:32:23;3.20;;;3.00;;
8572;SDS011;4324;42.012;24.872;2022-08-01T12:34:52;3.40;;;3.10;;
8572;SDS011;4324;42.012;24.872;2022-08-01T12:37:20;9.80;;;3.30;;
8572;SDS011;4324;42.012;24.872;2022-08-01T12:39:49;3.20;;;3.00;;
8572;SDS011;4324;42.012;24.872;2022-08-01T12:42:16;6.28;;;3.70;;
8572;SDS011;4324;42.012;24.872;2022-08-01T12:44:45;3.25;;;2.97;;
8572;SDS011;4324;42.012;24.872;2022-08-01T12:47:14;3.53;;;3.20;;
8572;SDS011;4324;42.012;24.872;2022-08-01T12:49:42;3.67;;;3.30;;
8572;SDS011;4324;42.012;24.872;2022-08-01T12:52:10;4.20;;;3.80;;
8572;SDS011;4324;42.012;24.872;2022-08-01T12:57:36;4.97;;;3.23;;
8572;SDS011;4324;42.012;24.872;2022-08-01T13:00:10;4.30;;;4.00;;
8572;SDS011;4324;42.012;24.872;2022-08-01T13:02:49;4.25;;;3.95;;
8572;SDS011;4324;42.012;24.872;2022-08-01T13:05:25;3.93;;;3.57;;
8572;SDS011;4324;42.012;24.872;2022-08-01T13:07:53;3.30;;;3.10;;
8572;SDS011;4324;42.012;24.872;2022-08-01T13:10:25;3.47;;;3.22;;
8572;SDS011;4324;42.012;24.872;2022-08-01T13:12:54;3.95;;;3.53;;
8572;SDS011;4324;42.012;24.872;2022-08-01T13:15:28;4.53;;;3.27;;
8572;SDS011;4324;42.012;24.872;2022-08-01T13:18:00;3.45;;;3.15;;
8572;SDS011;4324;42.012;24.872;2022-08-01T13:20:48;3.67;;;3.30;;
8572;SDS011;4324;42.012;24.872;2022-08-01T13:23:15;5.25;;;3.20;;
8572;SDS011;4324;42.012;24.872;2022-08-01T13:25:48;3.57;;;3.10;;
8572;SDS011;4324;42.012;24.872;2022-08-01T13:28:17;3.80;;;3.50;;
8572;SDS011;4324;42.012;24.872;2022-08-01T13:30:56;4.90;;;3.30;;
8572;SDS011;4324;42.012;24.872;2022-08-01T13:33:25;3.47;;;3.22;;
8572;SDS011;4324;42.012;24.872;2022-08-01T13:35:54;6.72;;;4.28;;
8572;SDS011;4324;42.012;24.872;2022-08-01T13:38:21;4.60;;;4.20;;
8572;SDS011;4324;42.012;24.872;2022-08-01T13:41:10;11.13;;;4.10;;
8572;SDS011;4324;42.012;24.872;2022-08-01T13:43:37;3.78;;;3.50;;
8572;SDS011;4324;42.012;24.872;2022-08-01T13:46:05;4.95;;;4.45;;
8572;SDS011;4324;42.012;24.872;2022-08-01T13:48:32;3.80;;;3.50;;
8572;SDS011;4324;42.012;24.872;2022-08-01T13:50:59;5.88;;;3.65;;
8572;SDS011;4324;42.012;24.872;2022-08-01T13:53:26;4.70;;;3.33;;
8572;SDS011;4324;42.012;24.872;2022-08-01T13:55:54;3.60;;;3.40;;
8572;SDS011;4324;42.012;24.872;2022-08-01T13:58:23;4.43;;;4.07;;
8572;SDS011;4324;42.012;24.872;2022-08-01T14:00:50;3.70;;;3.40;;
8572;SDS011;4324;42.012;24.872;2022-08-01T14:03:17;3.23;;;3.03;;
8572;SDS011;4324;42.012;24.872;2022-08-01T14:05:45;4.73;;;3.70;;
8572;SDS011;4324;42.012;24.872;2022-08-01T14:08:12;5.10;;;4.75;;
8572;SDS011;4324;42.012;24.872;2022-08-01T14:10:39;3.95;;;3.47;;
8572;SDS011;4324;42.012;24.872;2022-08-01T14:13:06;4.80;;;4.40;;
8572;SDS011;4324;42.012;24.872;2022-08-01T14:15:36;3.90;;;3.23;;
8572;SDS011;4324;42.012;24.872;2022-08-01T14:18:03;3.55;;;3.35;;
8572;SDS011;4324;42.012;24.872;2022-08-01T14:20:30;3.60;;;3.30;;
8572;SDS011;4324;42.012;24.872;2022-08-01T14:22:58;4.03;;;3.73;;
8572;SDS011;4324;42.012;24.872;2022-08-01T14:25:25;4.93;;;3.47;;
8572;SDS011;4324;42.012;24.872;2022-08-01T14:27:52;3.50;;;3.20;;
8572;SDS011;4324;42.012;24.872;2022-08-01T14:30:20;3.97;;;3.75;;
8572;SDS011;4324;42.012;24.872;2022-08-01T14:32:48;4.00;;;3.67;;
8572;SDS011;4324;42.012;24.872;2022-08-01T14:35:15;4.18;;;3.50;;
8572;SDS011;4324;42.012;24.872;2022-08-01T14:37:42;3.75;;;3.45;;
8572;SDS011;4324;42.012;24.872;2022-08-01T14:40:09;3.60;;;3.33;;
8572;SDS011;4324;42.012;24.872;2022-08-01T14:42:37;4.90;;;3.50;;
8572;SDS011;4324;42.012;24.872;2022-08-01T14:45:05;4.88;;;3.92;;
8572;SDS011;4324;42.012;24.872;2022-08-01T14:47:35;3.88;;;3.58;;
8572;SDS011;4324;42.012;24.872;2022-08-01T14:50:05;5.70;;;5.20;;
8572;SDS011;4324;42.012;24.872;2022-08-01T14:52:34;4.22;;;3.90;;
8572;SDS011;4324;42.012;24.872;2022-08-01T14:55:02;4.35;;;3.72;;
8572;SDS011;4324;42.012;24.872;2022-08-01T14:57:29;4.22;;;3.85;;
8572;SDS011;4324;42.012;24.872;2022-08-01T14:59:57;3.80;;;3.50;;
8572;SDS011;4324;42.012;24.872;2022-08-01T15:02:23;4.03;;;3.72;;
8572;SDS011;4324;42.012;24.872;2022-08-01T15:04:50;3.47;;;3.17;;
8572;SDS011;4324;42.012;24.872;2022-08-01T15:07:20;4.20;;;3.47;;
8572;SDS011;4324;42.012;24.872;2022-08-01T15:09:47;4.00;;;3.50;;
8572;SDS011;4324;42.012;24.872;2022-08-01T15:12:14;4.45;;;4.15;;
8572;SDS011;4324;42.012;24.872;2022-08-01T15:14:41;4.57;;;4.17;;
8572;SDS011;4324;42.012;24.872;2022-08-01T15:17:14;4.37;;;3.97;;
8572;SDS011;4324;42.012;24.872;2022-08-01T15:19:44;4.63;;;4.32;;
8572;SDS011;4324;42.012;24.872;2022-08-01T15:22:11;4.50;;;4.10;;
8572;SDS011;4324;42.012;24.872;2022-08-01T15:24:40;4.50;;;3.97;;